createdAt,value
2022-12-08T00:01:24.125Z,11.38
2022-12-08T00:03:52.041Z,10.50
2022-12-08T00:06:49.499Z,10.80
2022-12-08T00:09:41.087Z,10.73
2022-12-08T00:12:12.817Z,11.40
2022-12-08T00:14:42.553Z,10.35
2022-12-08T00:17:11.564Z,9.25
2022-12-08T00:19:39.963Z,9.48
2022-12-08T00:22:09.903Z,10.55
2022-12-08T00:24:39.873Z,12.25
2022-12-08T00:27:09.253Z,10.40
2022-12-08T00:29:37.227Z,10.98
2022-12-08T00:32:05.688Z,10.50
2022-12-08T00:34:33.553Z,11.55
2022-12-08T00:37:00.802Z,8.70
2022-12-08T00:39:27.919Z,8.60
2022-12-08T00:42:13.048Z,9.38
2022-12-08T00:44:41.341Z,7.90
2022-12-08T00:47:08.428Z,10.52
2022-12-08T00:49:35.477Z,10.48
2022-12-08T00:52:02.584Z,11.48
2022-12-08T00:54:29.725Z,11.00
2022-12-08T00:56:56.862Z,8.82
2022-12-08T00:59:23.783Z,8.65
2022-12-08T01:01:51.164Z,10.57
2022-12-08T01:04:19.655Z,8.65
2022-12-08T01:06:47.984Z,8.07
2022-12-08T01:09:16.398Z,8.23
2022-12-08T01:11:44.788Z,9.23
2022-12-08T01:14:12.652Z,7.63
2022-12-08T01:16:41.817Z,8.50
2022-12-08T01:19:11.063Z,8.00
2022-12-08T01:21:38.239Z,6.88
2022-12-08T01:24:05.773Z,10.18
2022-12-08T01:26:32.977Z,8.32
2022-12-08T01:29:00.152Z,8.38
2022-12-08T01:31:27.495Z,8.80
2022-12-08T01:33:54.613Z,8.73
2022-12-08T01:36:27.717Z,8.07
2022-12-08T01:38:57.137Z,8.95
2022-12-08T01:41:27.262Z,8.15
2022-12-08T01:44:08.522Z,8.30
2022-12-08T01:46:38.874Z,8.35
2022-12-08T01:49:11.852Z,8.30
2022-12-08T01:51:44.104Z,7.40
2022-12-08T01:54:13.522Z,7.85
2022-12-08T01:56:50.823Z,7.13
2022-12-08T01:59:19.376Z,7.05
2022-12-08T02:01:51.469Z,6.55
2022-12-08T02:04:18.654Z,8.45
2022-12-08T02:06:47.766Z,7.63
2022-12-08T02:09:15.446Z,6.88
2022-12-08T02:11:42.433Z,7.55
2022-12-08T02:14:11.986Z,7.30
2022-12-08T02:16:43.456Z,7.60
2022-12-08T02:19:41.353Z,8.52
2022-12-08T02:22:36.716Z,7.50
2022-12-08T02:25:16.375Z,7.95
2022-12-08T02:28:03.718Z,8.40
2022-12-08T02:31:05.856Z,7.97
2022-12-08T02:34:17.700Z,7.47
2022-12-08T02:36:50.357Z,8.57
2022-12-08T02:39:52.949Z,7.82
2022-12-08T02:42:38.366Z,7.47
2022-12-08T02:45:30.696Z,7.75
2022-12-08T02:47:59.282Z,6.82
2022-12-08T02:50:27.468Z,8.57
2022-12-08T02:52:54.879Z,8.93
2022-12-08T02:55:24.757Z,8.52
2022-12-08T02:58:03.977Z,9.27
2022-12-08T03:00:41.528Z,8.07
2022-12-08T03:03:23.817Z,9.13
2022-12-08T03:06:15.713Z,8.80
2022-12-08T03:08:50.082Z,7.63
2022-12-08T03:11:29.218Z,8.23
2022-12-08T03:14:00.610Z,7.05
2022-12-08T03:16:30.114Z,8.63
2022-12-08T03:19:13.841Z,8.77
2022-12-08T03:24:10.990Z,8.40
2022-12-08T03:26:53.396Z,9.60
2022-12-08T03:29:21.024Z,8.80
2022-12-08T03:31:56.134Z,8.77
2022-12-08T03:34:26.450Z,9.82
2022-12-08T03:36:53.953Z,9.32
2022-12-08T03:39:21.106Z,8.35
2022-12-08T03:41:48.135Z,8.52
2022-12-08T03:44:15.301Z,7.65
2022-12-08T03:46:42.264Z,8.45
2022-12-08T03:49:09.467Z,7.78
2022-12-08T03:51:36.664Z,7.97
2022-12-08T03:54:04.699Z,7.82
2022-12-08T03:56:35.216Z,7.55
2022-12-08T03:59:03.517Z,8.38
2022-12-08T04:01:30.848Z,9.10
2022-12-08T04:03:58.039Z,8.40
2022-12-08T04:06:26.546Z,8.85
2022-12-08T04:08:53.682Z,8.35
2022-12-08T04:11:21.548Z,8.25
2022-12-08T04:13:48.932Z,8.75
2022-12-08T04:16:25.094Z,8.60
2022-12-08T04:18:52.593Z,9.25
2022-12-08T04:21:20.096Z,12.52
2022-12-08T04:23:47.645Z,11.98
2022-12-08T04:26:15.289Z,9.90
2022-12-08T04:28:42.365Z,9.75
2022-12-08T04:31:09.351Z,9.27
2022-12-08T04:33:36.643Z,11.65
2022-12-08T04:36:05.084Z,11.50
2022-12-08T04:38:32.530Z,13.73
2022-12-08T04:41:00.944Z,14.73
2022-12-08T04:43:28.373Z,11.80
2022-12-08T04:45:55.462Z,9.98
2022-12-08T04:48:22.476Z,9.93
2022-12-08T04:50:49.660Z,8.68
2022-12-08T04:53:16.670Z,8.20
2022-12-08T04:55:45.247Z,8.20
2022-12-08T04:58:14.340Z,9.73
2022-12-08T05:00:41.903Z,10.90
2022-12-08T05:03:09.504Z,9.38
2022-12-08T05:05:36.737Z,7.82
2022-12-08T05:08:04.404Z,7.85
2022-12-08T05:10:32.381Z,8.57
2022-12-08T05:13:00.335Z,8.82
2022-12-08T05:15:27.982Z,9.10
2022-12-08T05:17:55.541Z,8.65
2022-12-08T05:20:22.788Z,10.93
2022-12-08T05:22:49.854Z,10.02
2022-12-08T05:25:17.108Z,12.32
2022-12-08T05:27:44.303Z,8.23
2022-12-08T05:30:11.750Z,9.50
2022-12-08T05:32:38.925Z,9.52
2022-12-08T05:35:06.543Z,8.52
2022-12-08T05:37:33.685Z,9.40
2022-12-08T05:40:01.017Z,9.48
2022-12-08T05:42:28.038Z,8.25
2022-12-08T05:44:55.026Z,8.45
2022-12-08T05:47:22.001Z,10.30
2022-12-08T05:49:49.117Z,10.18
2022-12-08T05:52:17.187Z,9.02
2022-12-08T05:54:44.598Z,8.80
2022-12-08T05:57:11.773Z,9.85
2022-12-08T05:59:39.743Z,9.90
2022-12-08T06:02:06.829Z,9.82
2022-12-08T06:04:33.917Z,10.05
2022-12-08T06:07:00.960Z,11.50
2022-12-08T06:09:27.973Z,10.95
2022-12-08T06:11:55.093Z,11.98
2022-12-08T06:14:22.155Z,10.95
2022-12-08T06:16:49.203Z,11.65
2022-12-08T06:19:16.546Z,12.13
2022-12-08T06:21:43.638Z,11.27
2022-12-08T06:24:10.789Z,10.52
2022-12-08T06:26:40.359Z,9.80
2022-12-08T06:29:07.897Z,11.70
2022-12-08T06:31:34.988Z,9.93
2022-12-08T06:34:02.109Z,11.75
2022-12-08T06:36:30.139Z,10.50
2022-12-08T06:38:57.497Z,11.43
2022-12-08T06:41:25.997Z,10.68
2022-12-08T06:43:56.253Z,11.25
2022-12-08T06:46:23.371Z,10.93
2022-12-08T06:48:50.854Z,16.95
2022-12-08T06:51:20.775Z,20.60
2022-12-08T06:53:48.560Z,21.55
2022-12-08T06:56:17.068Z,23.00
2022-12-08T06:58:48.935Z,21.75
2022-12-08T07:01:19.767Z,18.88
2022-12-08T07:03:47.893Z,20.17
2022-12-08T07:06:25.200Z,19.45
2022-12-08T07:08:52.633Z,17.92
2022-12-08T07:11:21.904Z,20.25
2022-12-08T07:13:50.701Z,17.30
2022-12-08T07:16:17.892Z,17.23
2022-12-08T07:18:44.891Z,16.80
2022-12-08T07:21:15.101Z,17.90
2022-12-08T07:23:43.320Z,15.98
2022-12-08T07:26:12.512Z,15.73
2022-12-08T07:28:41.322Z,14.80
2022-12-08T07:31:16.379Z,12.88
2022-12-08T07:33:43.550Z,14.43
2022-12-08T07:36:10.687Z,14.65
2022-12-08T07:38:37.733Z,13.07
2022-12-08T07:41:04.916Z,13.70
2022-12-08T07:43:32.203Z,11.70
2022-12-08T07:46:00.150Z,13.43
2022-12-08T07:48:27.138Z,17.50
2022-12-08T07:51:04.289Z,14.55
2022-12-08T07:53:32.265Z,11.32
2022-12-08T07:55:59.552Z,12.48
2022-12-08T07:58:27.694Z,11.15
2022-12-08T08:00:54.942Z,13.55
2022-12-08T08:03:22.532Z,13.38
2022-12-08T08:05:50.216Z,14.10
2022-12-08T08:08:18.275Z,13.60
2022-12-08T08:10:47.066Z,13.27
2022-12-08T08:13:14.253Z,11.70
2022-12-08T08:15:41.428Z,13.70
2022-12-08T08:18:08.551Z,16.20
2022-12-08T08:20:35.639Z,15.48
2022-12-08T08:23:02.658Z,13.68
2022-12-08T08:25:29.696Z,13.48
2022-12-08T08:27:56.819Z,13.65
2022-12-08T08:30:24.622Z,14.25
2022-12-08T08:32:52.450Z,15.95
2022-12-08T08:35:19.570Z,15.23
2022-12-08T08:37:49.419Z,17.65
2022-12-08T08:40:18.468Z,14.50
2022-12-08T08:42:45.508Z,14.73
2022-12-08T08:45:12.615Z,14.30
2022-12-08T08:47:39.551Z,14.98
2022-12-08T08:50:07.864Z,13.32
2022-12-08T08:52:35.149Z,14.07
2022-12-08T08:55:04.165Z,13.85
2022-12-08T08:57:31.872Z,13.48
2022-12-08T08:59:59.999Z,12.93
2022-12-08T09:02:27.012Z,17.08
2022-12-08T09:04:54.250Z,16.52
2022-12-08T09:07:21.373Z,17.90
2022-12-08T09:09:49.116Z,16.30
2022-12-08T09:12:16.205Z,15.45
2022-12-08T09:14:43.345Z,14.73
2022-12-08T09:17:10.451Z,12.68
2022-12-08T09:19:37.927Z,12.90
2022-12-08T09:22:06.046Z,13.50
2022-12-08T09:24:33.306Z,14.82
2022-12-08T09:27:00.367Z,14.65
2022-12-08T09:29:32.539Z,15.68
2022-12-08T09:32:03.282Z,16.27
2022-12-08T09:34:33.565Z,18.02
2022-12-08T09:37:00.598Z,18.92
2022-12-08T09:39:27.749Z,20.73
2022-12-08T09:42:04.192Z,19.90
2022-12-08T09:44:55.523Z,18.13
2022-12-08T09:47:32.252Z,19.90
2022-12-08T09:50:15.669Z,19.63
2022-12-08T09:52:56.796Z,18.10
2022-12-08T09:55:45.996Z,19.77
2022-12-08T09:58:21.743Z,17.48
2022-12-08T10:00:48.931Z,17.98
2022-12-08T10:03:17.053Z,17.90
2022-12-08T10:05:52.205Z,16.05
2022-12-08T10:08:29.560Z,14.82
2022-12-08T10:11:05.525Z,14.65
2022-12-08T10:13:58.166Z,12.82
2022-12-08T10:16:33.957Z,14.02
2022-12-08T10:19:18.896Z,9.18
2022-12-08T10:24:37.531Z,7.80
2022-12-08T10:27:11.853Z,6.38
2022-12-08T10:29:40.603Z,6.80
2022-12-08T10:32:19.260Z,7.20
2022-12-08T10:35:07.896Z,7.80
2022-12-08T10:37:35.160Z,7.80
2022-12-08T10:40:17.505Z,8.27
2022-12-08T10:42:55.483Z,7.27
2022-12-08T10:45:27.793Z,8.73
2022-12-08T10:48:00.268Z,8.13
2022-12-08T10:50:42.852Z,8.50
2022-12-08T10:53:34.101Z,9.03
2022-12-08T10:56:04.355Z,9.25
2022-12-08T10:58:36.479Z,8.20
2022-12-08T11:01:14.060Z,8.18
2022-12-08T11:03:51.357Z,8.60
2022-12-08T11:06:20.713Z,8.20
2022-12-08T11:08:59.412Z,8.52
2022-12-08T11:11:50.852Z,9.00
2022-12-08T11:14:30.237Z,7.82
2022-12-08T11:17:07.597Z,7.68
2022-12-08T11:19:40.077Z,8.27
2022-12-08T11:22:45.783Z,7.95
2022-12-08T11:25:12.791Z,8.15
2022-12-08T11:27:43.687Z,8.20
2022-12-08T11:30:25.623Z,7.85
2022-12-08T11:32:56.805Z,8.48
2022-12-08T11:35:40.728Z,7.63
2022-12-08T11:38:27.684Z,7.55
2022-12-08T11:41:00.497Z,7.78
2022-12-08T11:44:13.747Z,8.05
2022-12-08T11:46:49.038Z,7.17
2022-12-08T11:49:16.101Z,7.60
2022-12-08T11:51:48.842Z,6.63
2022-12-08T11:54:33.014Z,6.72
2022-12-08T11:57:02.775Z,6.80
2022-12-08T11:59:33.298Z,6.50
2022-12-08T12:02:03.074Z,6.13
2022-12-08T12:04:36.148Z,6.60
2022-12-08T12:07:12.713Z,6.55
2022-12-08T12:10:07.277Z,7.05
2022-12-08T12:12:44.400Z,6.13
2022-12-08T12:15:52.676Z,6.57
2022-12-08T12:18:46.701Z,7.28
2022-12-08T12:21:19.667Z,6.10
2022-12-08T12:23:55.743Z,6.13
2022-12-08T12:26:29.810Z,5.35
2022-12-08T12:29:05.800Z,6.68
2022-12-08T12:31:37.103Z,6.57
2022-12-08T12:34:22.466Z,6.22
2022-12-08T12:37:12.677Z,6.43
2022-12-08T12:40:06.102Z,5.95
2022-12-08T12:45:18.435Z,4.95
2022-12-08T12:48:13.259Z,5.28
2022-12-08T12:50:43.659Z,5.82
2022-12-08T12:53:16.941Z,4.90
2022-12-08T12:56:01.628Z,4.38
2022-12-08T12:58:28.662Z,4.40
2022-12-08T13:01:11.237Z,3.75
2022-12-08T13:03:39.333Z,4.13
2022-12-08T13:06:10.022Z,3.85
2022-12-08T13:08:51.318Z,3.92
2022-12-08T13:11:18.553Z,3.70
2022-12-08T13:14:05.015Z,4.10
2022-12-08T13:16:35.726Z,3.72
2022-12-08T13:19:11.948Z,3.67
2022-12-08T13:21:40.032Z,3.80
2022-12-08T13:24:28.363Z,4.10
2022-12-08T13:27:04.585Z,4.00
2022-12-08T13:29:35.893Z,3.42
2022-12-08T13:32:04.833Z,4.03
2022-12-08T13:34:52.024Z,3.63
2022-12-08T13:37:27.035Z,4.90
2022-12-08T13:40:06.808Z,4.72
2022-12-08T13:42:50.755Z,6.68
2022-12-08T13:45:52.963Z,4.05
2022-12-08T13:49:09.672Z,5.72
2022-12-08T13:53:22.475Z,8.85
2022-12-08T13:55:58.710Z,3.40
2022-12-08T13:57:36.315Z,5.05
2022-12-08T14:00:17.141Z,5.20
2022-12-08T14:02:48.571Z,4.43
2022-12-08T14:05:20.378Z,3.53
2022-12-08T14:07:54.376Z,3.53
2022-12-08T14:10:28.479Z,4.65
2022-12-08T14:13:00.091Z,3.88
2022-12-08T14:15:31.271Z,17.20
2022-12-08T14:18:01.545Z,9.68
2022-12-08T14:20:51.989Z,11.95
2022-12-08T14:23:21.391Z,4.93
2022-12-08T14:25:48.812Z,5.68
2022-12-08T14:28:17.680Z,6.13
2022-12-08T14:30:44.973Z,6.57
2022-12-08T14:33:15.634Z,6.32
2022-12-08T14:35:42.768Z,6.40
2022-12-08T14:38:15.426Z,6.70
2022-12-08T14:40:48.530Z,7.55
2022-12-08T14:43:18.997Z,6.03
2022-12-08T14:45:46.062Z,6.88
2022-12-08T14:48:28.173Z,6.75
2022-12-08T14:51:04.642Z,6.13
2022-12-08T14:53:53.694Z,5.95
2022-12-08T14:56:33.671Z,5.88
2022-12-08T14:59:12.287Z,6.95
2022-12-08T15:01:40.599Z,7.50
2022-12-08T15:04:19.156Z,6.25
2022-12-08T15:07:07.159Z,7.35
2022-12-08T15:09:41.150Z,6.13
2022-12-08T15:12:13.824Z,7.13
2022-12-08T15:14:59.336Z,6.72
2022-12-08T15:17:31.799Z,7.38
2022-12-08T15:20:01.106Z,7.50
2022-12-08T15:22:30.889Z,5.90
2022-12-08T15:24:58.646Z,7.15
2022-12-08T15:27:26.414Z,6.30
2022-12-08T15:29:53.908Z,6.68
2022-12-08T15:32:23.524Z,7.03
2022-12-08T15:34:50.782Z,6.95
2022-12-08T15:37:26.658Z,6.75
2022-12-08T15:39:54.081Z,7.13
2022-12-08T15:42:21.109Z,7.10
2022-12-08T15:44:48.330Z,7.43
2022-12-08T15:47:19.337Z,7.03
2022-12-08T15:49:47.621Z,8.80
2022-12-08T15:52:16.992Z,8.20
2022-12-08T15:54:44.257Z,8.68
2022-12-08T15:58:24.878Z,9.15
2022-12-08T16:00:51.149Z,8.75
2022-12-08T16:04:02.737Z,8.48
2022-12-08T16:07:26.844Z,8.32
2022-12-08T16:09:13.168Z,8.95
2022-12-08T16:12:08.801Z,7.55
2022-12-08T16:17:25.849Z,11.75
2022-12-08T16:19:53.100Z,13.63
2022-12-08T16:25:20.213Z,15.55
2022-12-08T16:28:01.407Z,10.55
2022-12-08T16:30:30.566Z,11.95
2022-12-08T16:32:57.620Z,13.13
2022-12-08T16:35:24.722Z,13.15
2022-12-08T16:37:51.729Z,13.70
2022-12-08T16:40:19.011Z,12.10
2022-12-08T16:42:47.905Z,13.88
2022-12-08T16:45:17.915Z,14.82
2022-12-08T16:47:47.712Z,14.15
2022-12-08T16:50:21.396Z,14.00
2022-12-08T16:52:49.658Z,13.93
2022-12-08T16:55:19.432Z,10.98
2022-12-08T16:57:47.633Z,11.68
2022-12-08T17:00:17.985Z,10.88
2022-12-08T17:02:45.335Z,11.55
2022-12-08T17:05:15.180Z,10.57
2022-12-08T17:07:44.337Z,9.43
2022-12-08T17:10:16.013Z,9.85
2022-12-08T17:12:44.152Z,11.15
2022-12-08T17:15:15.423Z,11.88
2022-12-08T17:17:42.838Z,11.65
2022-12-08T17:20:14.066Z,12.48
2022-12-08T17:22:41.603Z,12.85
2022-12-08T17:25:09.292Z,12.25
2022-12-08T17:27:37.358Z,13.88
2022-12-08T17:30:06.370Z,13.13
2022-12-08T17:32:33.728Z,12.27
2022-12-08T17:35:00.865Z,15.93
2022-12-08T17:37:27.844Z,18.77
2022-12-08T17:39:54.925Z,18.73
2022-12-08T17:42:26.069Z,17.17
2022-12-08T17:44:54.071Z,18.48
2022-12-08T17:47:21.247Z,20.30
2022-12-08T17:49:48.946Z,21.85
2022-12-08T17:52:16.104Z,18.23
2022-12-08T17:54:43.565Z,13.02
2022-12-08T17:57:11.024Z,18.30
2022-12-08T17:59:38.151Z,20.48
2022-12-08T18:02:05.595Z,17.70
2022-12-08T18:04:32.798Z,11.70
2022-12-08T18:07:01.611Z,17.55
2022-12-08T18:09:31.017Z,18.45
2022-12-08T18:11:58.585Z,18.75
2022-12-08T18:14:25.767Z,16.98
2022-12-08T18:16:52.906Z,16.20
2022-12-08T18:19:20.030Z,8.63
2022-12-08T18:21:47.228Z,9.15
2022-12-08T18:24:22.303Z,10.93
2022-12-08T18:26:52.481Z,8.75
2022-12-08T18:29:21.797Z,8.00
2022-12-08T18:31:49.345Z,6.68
2022-12-08T18:34:16.592Z,7.63
2022-12-08T18:36:43.585Z,6.90
2022-12-08T18:39:29.613Z,7.97
2022-12-08T18:41:57.742Z,7.15
2022-12-08T18:44:25.454Z,7.60
2022-12-08T18:46:52.403Z,7.05
2022-12-08T18:49:20.160Z,8.07
2022-12-08T18:51:47.694Z,8.88
2022-12-08T18:54:14.916Z,7.38
2022-12-08T18:56:41.884Z,6.97
2022-12-08T18:59:12.012Z,7.88
2022-12-08T19:01:40.098Z,7.82
2022-12-08T19:04:27.760Z,6.88
2022-12-08T19:06:56.392Z,6.97
2022-12-08T19:09:24.647Z,8.18
2022-12-08T19:11:51.913Z,8.07
2022-12-08T19:14:22.714Z,7.82
2022-12-08T19:16:54.660Z,8.73
2022-12-08T19:19:21.788Z,7.32
2022-12-08T19:21:49.063Z,7.45
2022-12-08T19:24:16.461Z,7.78
2022-12-08T19:26:43.912Z,8.98
2022-12-08T19:29:12.098Z,8.75
2022-12-08T19:31:39.607Z,7.82
2022-12-08T19:34:07.073Z,7.85
2022-12-08T19:36:35.727Z,8.30
2022-12-08T19:39:23.035Z,8.15
2022-12-08T19:42:09.461Z,6.88
2022-12-08T19:50:38.554Z,7.45
2022-12-08T19:53:13.268Z,7.00
2022-12-08T19:55:42.230Z,8.23
2022-12-08T19:58:10.233Z,8.27
2022-12-08T20:00:40.090Z,7.47
2022-12-08T20:03:07.268Z,8.30
2022-12-08T20:05:36.836Z,7.30
2022-12-08T20:08:04.046Z,8.43
2022-12-08T20:10:36.074Z,7.45
2022-12-08T20:13:22.309Z,7.35
2022-12-08T20:15:49.641Z,6.50
2022-12-08T20:18:17.906Z,6.68
2022-12-08T20:20:46.335Z,6.68
2022-12-08T20:23:14.517Z,7.25
2022-12-08T20:25:43.077Z,6.65
2022-12-08T20:28:10.636Z,7.00
2022-12-08T20:30:42.660Z,6.15
2022-12-08T20:33:12.882Z,6.50
2022-12-08T20:35:40.405Z,6.70
2022-12-08T20:38:07.584Z,7.35
2022-12-08T20:40:34.918Z,7.32
2022-12-08T20:43:02.111Z,7.55
2022-12-08T20:45:29.318Z,8.20
2022-12-08T20:47:56.710Z,7.38
2022-12-08T20:50:24.467Z,7.63
2022-12-08T20:52:52.614Z,7.05
2022-12-08T20:55:20.052Z,6.97
2022-12-08T20:57:47.154Z,7.38
2022-12-08T21:00:17.724Z,7.50
2022-12-08T21:02:49.753Z,7.35
2022-12-08T21:05:17.379Z,7.47
2022-12-08T21:07:44.653Z,6.60
2022-12-08T21:10:12.147Z,7.22
2022-12-08T21:12:40.258Z,6.78
2022-12-08T21:15:08.198Z,7.15
2022-12-08T21:17:37.171Z,6.55
2022-12-08T21:20:05.134Z,6.32
2022-12-08T21:22:32.801Z,5.95
2022-12-08T21:24:59.959Z,5.80
2022-12-08T21:27:27.541Z,6.78
2022-12-08T21:29:54.698Z,6.47
2022-12-08T21:32:26.997Z,7.65
2022-12-08T21:34:57.692Z,7.05
2022-12-08T21:37:25.229Z,6.20
2022-12-08T21:39:52.568Z,5.85
2022-12-08T21:42:38.460Z,5.65
2022-12-08T21:45:06.459Z,5.70
2022-12-08T21:47:34.313Z,6.07
2022-12-08T21:50:01.874Z,6.07
2022-12-08T21:52:29.112Z,5.72
2022-12-08T21:54:56.158Z,5.18
2022-12-08T21:57:23.372Z,5.72
2022-12-08T21:59:51.223Z,5.18
2022-12-08T22:02:22.383Z,5.53
2022-12-08T22:04:52.889Z,5.18
2022-12-08T22:07:21.642Z,4.68
2022-12-08T22:09:49.250Z,4.70
2022-12-08T22:12:16.993Z,4.20
2022-12-08T22:14:44.177Z,4.18
2022-12-08T22:17:11.368Z,3.97
2022-12-08T22:19:38.859Z,4.32
2022-12-08T22:22:05.958Z,4.28
2022-12-08T22:24:33.234Z,3.65
2022-12-08T22:27:00.413Z,4.05
2022-12-08T22:29:28.533Z,2.88
2022-12-08T22:31:56.064Z,2.67
2022-12-08T22:34:23.418Z,3.40
2022-12-08T22:36:50.853Z,3.30
2022-12-08T22:39:18.419Z,2.97
2022-12-08T22:41:45.858Z,3.67
2022-12-08T22:44:16.414Z,3.30
2022-12-08T22:46:43.672Z,2.95
2022-12-08T22:49:10.860Z,3.20
2022-12-08T22:51:39.477Z,2.85
2022-12-08T22:54:06.757Z,3.20
2022-12-08T22:56:33.695Z,3.00
2022-12-08T22:59:00.984Z,3.30
2022-12-08T23:01:31.259Z,3.40
2022-12-08T23:03:59.655Z,3.40
2022-12-08T23:06:28.028Z,3.53
2022-12-08T23:08:56.031Z,3.10
2022-12-08T23:11:25.769Z,3.03
2022-12-08T23:13:53.264Z,3.10
2022-12-08T23:16:23.509Z,2.90
2022-12-08T23:18:51.584Z,3.53
2022-12-08T23:21:20.375Z,3.10
2022-12-08T23:23:48.167Z,2.80
2022-12-08T23:26:19.897Z,2.97
2022-12-08T23:28:47.378Z,3.17
2022-12-08T23:31:15.354Z,2.97
2022-12-08T23:33:42.710Z,3.42
2022-12-08T23:36:11.468Z,3.35
2022-12-08T23:38:38.578Z,3.63
2022-12-08T23:41:08.177Z,3.15
2022-12-08T23:43:35.624Z,3.78
2022-12-08T23:46:03.578Z,3.60
2022-12-08T23:48:35.022Z,3.05
2022-12-08T23:51:02.308Z,3.67
2022-12-08T23:53:30.712Z,4.38
2022-12-08T23:56:02.292Z,3.75
2022-12-08T23:58:33.419Z,3.53
